createdAt,value
2018-01-18T00:00:28.660Z,932.2
2018-01-18T00:01:32.640Z,932.1
2018-01-18T00:02:37.674Z,932.1
2018-01-18T00:03:41.787Z,932.2
2018-01-18T00:04:46.706Z,932.1
2018-01-18T00:05:51.777Z,927.8
2018-01-18T00:06:56.346Z,932.2
2018-01-18T00:08:02.866Z,932.1
2018-01-18T00:09:12.554Z,932.1
2018-01-18T00:10:17.244Z,932.1
2018-01-18T00:11:21.547Z,932
2018-01-18T00:12:25.862Z,932
2018-01-18T00:13:29.951Z,932.1
2018-01-18T00:14:34.280Z,927.6
2018-01-18T00:15:38.056Z,932
2018-01-18T00:16:42.787Z,932
2018-01-18T00:17:46.221Z,932
2018-01-18T00:18:49.672Z,932.1
2018-01-18T00:19:57.498Z,932.1
2018-01-18T00:21:01.483Z,932
2018-01-18T00:22:05.372Z,932.1
2018-01-18T00:23:09.349Z,932.1
2018-01-18T00:24:13.658Z,932
2018-01-18T00:25:17.266Z,932.1
2018-01-18T00:26:22.042Z,932.2
2018-01-18T00:27:26.590Z,932.1
2018-01-18T00:28:30.371Z,932.1
2018-01-18T00:29:35.965Z,932.2
2018-01-18T00:30:45.593Z,932.1
2018-01-18T00:31:49.674Z,932.2
2018-01-18T00:32:55.694Z,932.1
2018-01-18T00:34:01.064Z,932.1
2018-01-18T00:35:05.649Z,932
2018-01-18T00:36:09.649Z,932.1
2018-01-18T00:37:13.231Z,932
2018-01-18T00:38:17.480Z,932
2018-01-18T00:39:22.432Z,932
2018-01-18T00:40:27.935Z,932
2018-01-18T00:41:37.697Z,932
2018-01-18T00:42:44.179Z,932
2018-01-18T00:43:47.706Z,931.8
2018-01-18T00:44:51.147Z,931.8
2018-01-18T00:45:54.443Z,931.8
2018-01-18T00:46:58.437Z,931.8
2018-01-18T00:48:01.727Z,931.9
2018-01-18T00:49:05.261Z,932
2018-01-18T00:50:08.655Z,931.9
2018-01-18T00:51:12.088Z,931.8
2018-01-18T00:52:19.204Z,931.7
2018-01-18T00:53:22.857Z,931.7
2018-01-18T00:54:26.216Z,931.8
2018-01-18T00:55:29.525Z,931.7
2018-01-18T00:56:32.931Z,931.8
2018-01-18T00:57:36.324Z,931.8
2018-01-18T00:58:39.771Z,931.8
2018-01-18T00:59:43.187Z,931.7
2018-01-18T01:00:46.680Z,931.9
2018-01-18T01:01:50.051Z,931.9
2018-01-18T01:02:57.834Z,931.8
2018-01-18T01:04:01.194Z,931.7
2018-01-18T01:05:04.817Z,931.7
2018-01-18T01:06:08.053Z,931.7
2018-01-18T01:07:11.464Z,931.6
2018-01-18T01:08:14.928Z,931.8
2018-01-18T01:09:19.025Z,931.7
2018-01-18T01:10:23.155Z,931.8
2018-01-18T01:11:27.120Z,931.7
2018-01-18T01:12:30.555Z,931.8
2018-01-18T01:13:37.992Z,931.8
2018-01-18T01:14:41.526Z,931.7
2018-01-18T01:15:45.527Z,931.9
2018-01-18T01:16:48.980Z,931.7
2018-01-18T01:17:52.359Z,931.7
2018-01-18T01:18:55.901Z,931.6
2018-01-18T01:19:59.997Z,931.8
2018-01-18T01:21:03.508Z,931.8
2018-01-18T01:22:07.461Z,931.7
2018-01-18T01:23:11.463Z,931.7
2018-01-18T01:24:20.016Z,931.7
2018-01-18T01:25:24.936Z,931.8
2018-01-18T01:26:28.357Z,931.7
2018-01-18T01:27:33.005Z,931.8
2018-01-18T01:28:37.345Z,931.7
2018-01-18T01:29:40.830Z,931.8
2018-01-18T01:30:45.485Z,931.8
2018-01-18T01:31:48.913Z,931.8
2018-01-18T01:32:52.966Z,931.8
2018-01-18T01:33:56.419Z,931.9
2018-01-18T01:35:04.082Z,931.7
2018-01-18T01:36:07.408Z,931.7
2018-01-18T01:37:11.597Z,931.7
2018-01-18T01:38:14.604Z,931.7
2018-01-18T01:39:18.805Z,931.7
2018-01-18T01:40:24.136Z,931.6
2018-01-18T01:41:28.688Z,931.8
2018-01-18T01:42:32.792Z,931.8
2018-01-18T01:43:36.081Z,931.8
2018-01-18T01:44:40.675Z,931.8
2018-01-18T01:45:52.000Z,931.7
2018-01-18T01:46:59.841Z,931.9
2018-01-18T01:48:04.312Z,931.9
2018-01-18T01:49:07.807Z,931.9
2018-01-18T01:50:12.474Z,932
2018-01-18T01:51:16.075Z,931.8
2018-01-18T01:52:20.016Z,931.8
2018-01-18T01:53:24.427Z,931.9
2018-01-18T01:54:30.256Z,931.8
2018-01-18T01:55:35.904Z,931.8
2018-01-18T01:56:42.887Z,931.9
2018-01-18T01:57:49.179Z,931.9
2018-01-18T01:58:52.639Z,931.9
2018-01-18T01:59:56.034Z,931.9
2018-01-18T02:01:00.026Z,931.7
2018-01-18T02:02:03.877Z,931.9
2018-01-18T02:03:09.352Z,931.8
2018-01-18T02:04:13.391Z,931.7
2018-01-18T02:05:19.422Z,931.7
2018-01-18T02:06:24.108Z,931.7
2018-01-18T02:07:33.098Z,927.4
2018-01-18T02:08:38.113Z,931.6
2018-01-18T02:09:42.545Z,931.6
2018-01-18T02:10:46.364Z,931.7
2018-01-18T02:11:50.960Z,931.6
2018-01-18T02:12:54.987Z,931.5
2018-01-18T02:13:59.250Z,931.4
2018-01-18T02:15:03.819Z,931.5
2018-01-18T02:16:09.109Z,931.6
2018-01-18T02:17:13.944Z,931.6
2018-01-18T02:18:24.301Z,931.6
2018-01-18T02:19:32.112Z,931.6
2018-01-18T02:20:38.019Z,931.7
2018-01-18T02:21:42.847Z,931.7
2018-01-18T02:22:46.302Z,931.7
2018-01-18T02:23:50.949Z,931.9
2018-01-18T02:24:55.638Z,931.9
2018-01-18T02:26:00.055Z,931.9
2018-01-18T02:27:04.070Z,932
2018-01-18T02:28:07.950Z,932
2018-01-18T02:29:15.602Z,932
2018-01-18T02:30:20.559Z,932
2018-01-18T02:31:26.511Z,931.9
2018-01-18T02:32:31.164Z,932
2018-01-18T02:33:36.679Z,932
2018-01-18T02:34:40.672Z,932.1
2018-01-18T02:35:44.533Z,931.9
2018-01-18T02:36:49.130Z,931.9
2018-01-18T02:37:53.633Z,931.9
2018-01-18T02:38:58.479Z,931.9
2018-01-18T02:40:39.540Z,931.8
2018-01-18T02:41:44.413Z,931.8
2018-01-18T02:42:50.117Z,931.8
2018-01-18T02:43:54.070Z,931.7
2018-01-18T02:44:57.597Z,931.7
2018-01-18T02:46:01.040Z,931.6
2018-01-18T02:47:04.501Z,931.7
2018-01-18T02:48:10.685Z,931.6
2018-01-18T02:49:14.789Z,931.7
2018-01-18T02:50:19.890Z,931.6
2018-01-18T02:51:28.874Z,931.6
2018-01-18T02:52:33.809Z,931.7
2018-01-18T02:53:39.580Z,931.6
2018-01-18T02:54:44.083Z,931.5
2018-01-18T02:55:47.948Z,931.5
2018-01-18T02:56:52.499Z,931.6
2018-01-18T02:57:56.935Z,931.5
2018-01-18T02:58:59.999Z,931.4
2018-01-18T03:00:04.109Z,931.5
2018-01-18T03:01:10.219Z,931.5
2018-01-18T03:02:18.276Z,931.5
2018-01-18T03:03:22.363Z,931.3
2018-01-18T03:04:26.565Z,931.3
2018-01-18T03:05:30.666Z,931.3
2018-01-18T03:06:35.327Z,927.1
2018-01-18T03:07:39.782Z,931.3
2018-01-18T03:08:45.187Z,931.3
2018-01-18T03:09:49.921Z,931.1
2018-01-18T03:10:54.473Z,931.3
2018-01-18T03:11:59.758Z,931.3
2018-01-18T03:13:07.447Z,931.3
2018-01-18T03:14:11.516Z,931.3
2018-01-18T03:15:15.956Z,931.3
2018-01-18T03:16:22.496Z,931.1
2018-01-18T03:17:27.835Z,931.3
2018-01-18T03:18:34.805Z,931.2
2018-01-18T03:19:38.083Z,931.2
2018-01-18T03:20:43.713Z,931.1
2018-01-18T03:21:48.401Z,931.1
2018-01-18T03:22:51.712Z,931
2018-01-18T03:24:02.538Z,931.1
2018-01-18T03:25:06.474Z,931.1
2018-01-18T03:26:11.234Z,931.1
2018-01-18T03:27:14.664Z,931.1
2018-01-18T03:28:18.101Z,931
2018-01-18T03:29:21.399Z,930.9
2018-01-18T03:30:25.535Z,931
2018-01-18T03:31:28.955Z,931
2018-01-18T03:32:32.331Z,931.2
2018-01-18T03:33:35.746Z,930.8
2018-01-18T03:34:43.135Z,930.8
2018-01-18T03:35:46.503Z,930.8
2018-01-18T03:36:50.041Z,931
2018-01-18T03:37:53.464Z,930.8
2018-01-18T03:38:56.694Z,930.8
2018-01-18T03:40:00.146Z,930.8
2018-01-18T03:41:03.611Z,930.7
2018-01-18T03:42:06.896Z,930.7
2018-01-18T03:43:10.301Z,930.7
2018-01-18T03:44:14.134Z,930.6
2018-01-18T03:45:21.199Z,926.5
2018-01-18T03:46:24.701Z,930.6
2018-01-18T03:47:28.774Z,930.7
2018-01-18T03:48:33.042Z,930.6
2018-01-18T03:49:36.395Z,930.6
2018-01-18T03:50:39.759Z,930.5
2018-01-18T03:51:43.802Z,930.5
2018-01-18T03:52:48.068Z,930.5
2018-01-18T03:53:51.590Z,930.5
2018-01-18T03:54:55.132Z,930.5
2018-01-18T03:56:02.267Z,930.4
2018-01-18T03:57:06.403Z,930.5
2018-01-18T03:58:09.591Z,930.5
2018-01-18T03:59:12.962Z,930.6
2018-01-18T04:00:17.408Z,930.4
2018-01-18T04:01:20.698Z,930.5
2018-01-18T04:02:24.079Z,930.5
2018-01-18T04:03:28.257Z,930.4
2018-01-18T04:04:31.795Z,930.5
2018-01-18T04:05:35.290Z,930.4
2018-01-18T04:06:42.361Z,930.4
2018-01-18T04:07:46.520Z,930.4
2018-01-18T04:08:49.904Z,930.5
2018-01-18T04:09:54.117Z,930.3
2018-01-18T04:10:57.538Z,930.3
2018-01-18T04:12:00.879Z,930.3
2018-01-18T04:13:04.710Z,930.3
2018-01-18T04:14:08.052Z,930.2
2018-01-18T04:15:12.293Z,930.2
2018-01-18T04:16:16.625Z,930.1
2018-01-18T04:17:23.769Z,930.2
2018-01-18T04:18:27.799Z,930.2
2018-01-18T04:19:32.722Z,930.3
2018-01-18T04:20:38.150Z,930.2
2018-01-18T04:21:42.367Z,930.2
2018-01-18T04:22:46.835Z,930.4
2018-01-18T04:23:51.176Z,930.3
2018-01-18T04:24:55.959Z,930.3
2018-01-18T04:26:01.605Z,930.2
2018-01-18T04:27:05.492Z,930.2
2018-01-18T04:28:45.885Z,930.2
2018-01-18T04:29:49.203Z,930.3
2018-01-18T04:30:53.223Z,930.3
2018-01-18T04:31:57.450Z,930.4
2018-01-18T04:33:04.116Z,930.2
2018-01-18T04:34:08.660Z,930.3
2018-01-18T04:35:13.853Z,930.3
2018-01-18T04:36:18.761Z,930.3
2018-01-18T04:37:22.618Z,930.3
2018-01-18T04:38:27.334Z,930.2
2018-01-18T04:40:42.030Z,930.2
2018-01-18T04:41:48.413Z,930.2
2018-01-18T04:42:52.381Z,930.2
2018-01-18T04:43:56.383Z,930.2
2018-01-18T04:45:02.728Z,930.2
2018-01-18T04:46:08.961Z,930.3
2018-01-18T04:47:14.317Z,930.3
2018-01-18T04:48:20.277Z,930.3
2018-01-18T04:49:24.743Z,930.4
2018-01-18T04:50:32.272Z,930.2
2018-01-18T04:51:46.154Z,930.1
2018-01-18T04:52:53.113Z,930.1
2018-01-18T04:53:58.290Z,930.1
2018-01-18T04:55:03.605Z,930.2
2018-01-18T04:56:09.635Z,930.3
2018-01-18T04:57:17.381Z,930
2018-01-18T04:58:21.485Z,930
2018-01-18T04:59:24.674Z,930
2018-01-18T05:00:30.514Z,930.1
2018-01-18T05:01:33.940Z,930
2018-01-18T05:02:44.930Z,930
2018-01-18T05:03:48.364Z,929.9
2018-01-18T05:04:52.289Z,930
2018-01-18T05:05:59.360Z,929.9
2018-01-18T05:07:02.500Z,929.8
2018-01-18T05:08:09.271Z,929.8
2018-01-18T05:09:13.803Z,929.9
2018-01-18T05:10:18.297Z,929.7
2018-01-18T05:11:23.181Z,925.7
2018-01-18T05:12:27.191Z,929.8
2018-01-18T05:13:38.516Z,929.6
2018-01-18T05:14:41.800Z,929.7
2018-01-18T05:15:45.806Z,929.7
2018-01-18T05:16:52.901Z,929.8
2018-01-18T05:17:59.238Z,929.7
2018-01-18T05:19:02.616Z,929.7
2018-01-18T05:20:06.302Z,925.6
2018-01-18T05:21:11.571Z,929.6
2018-01-18T05:22:15.529Z,929.6
2018-01-18T05:23:22.237Z,929.6
2018-01-18T05:24:30.065Z,929.6
2018-01-18T05:25:34.671Z,929.5
2018-01-18T05:26:39.930Z,929.6
2018-01-18T05:27:43.377Z,929.5
2018-01-18T05:28:46.846Z,929.3
2018-01-18T05:29:51.291Z,929.4
2018-01-18T05:31:04.637Z,929.5
2018-01-18T05:32:08.636Z,929.4
2018-01-18T05:33:15.874Z,929.3
2018-01-18T05:34:29.238Z,929.4
2018-01-18T05:35:44.510Z,929.4
2018-01-18T05:36:48.326Z,929.3
2018-01-18T05:37:53.388Z,929.3
2018-01-18T05:38:59.578Z,929.3
2018-01-18T05:40:03.734Z,929.2
2018-01-18T05:41:07.154Z,924.9
2018-01-18T05:42:11.919Z,929
2018-01-18T05:43:17.109Z,929.1
2018-01-18T05:44:22.581Z,929.1
2018-01-18T05:45:28.913Z,929.1
2018-01-18T05:46:36.408Z,929
2018-01-18T05:47:41.096Z,929
2018-01-18T05:48:47.915Z,929
2018-01-18T05:49:51.832Z,929
2018-01-18T05:50:56.820Z,929
2018-01-18T05:52:02.569Z,929
2018-01-18T05:53:07.211Z,928.9
2018-01-18T05:54:11.669Z,928.7
2018-01-18T05:55:15.359Z,928.8
2018-01-18T05:56:19.941Z,928.8
2018-01-18T05:57:30.341Z,928.8
2018-01-18T05:58:35.072Z,928.5
2018-01-18T05:59:38.619Z,928.7
2018-01-18T06:00:44.337Z,928.6
2018-01-18T06:01:49.452Z,928.6
2018-01-18T06:02:53.953Z,928.5
2018-01-18T06:03:57.930Z,928.6
2018-01-18T06:05:01.959Z,928.5
2018-01-18T06:06:07.420Z,928.6
2018-01-18T06:07:11.914Z,928.6
2018-01-18T06:08:20.842Z,928.5
2018-01-18T06:09:24.251Z,928.4
2018-01-18T06:10:27.518Z,928.4
2018-01-18T06:11:30.881Z,928.5
2018-01-18T06:12:34.205Z,928.4
2018-01-18T06:13:37.796Z,928.4
2018-01-18T06:14:41.214Z,928.4
2018-01-18T06:15:44.714Z,924.3
2018-01-18T06:16:48.197Z,928.3
2018-01-18T06:17:51.456Z,928.3
2018-01-18T06:18:58.610Z,928.4
2018-01-18T06:20:02.213Z,923.8
2018-01-18T06:21:05.674Z,928.3
2018-01-18T06:22:09.045Z,928.4
2018-01-18T06:23:12.557Z,928.3
2018-01-18T06:24:15.986Z,924.1
2018-01-18T06:25:19.404Z,928.3
2018-01-18T06:26:22.900Z,928.3
2018-01-18T06:27:26.855Z,928.2
2018-01-18T06:28:30.458Z,928.2
2018-01-18T06:29:38.888Z,928.2
2018-01-18T06:30:42.261Z,928.2
2018-01-18T06:31:45.714Z,928.1
2018-01-18T06:32:49.917Z,928.1
2018-01-18T06:33:53.246Z,928.1
2018-01-18T06:34:56.678Z,928.1
2018-01-18T06:36:00.202Z,928
2018-01-18T06:37:04.250Z,928
2018-01-18T06:38:08.302Z,928
2018-01-18T06:39:12.407Z,928
2018-01-18T06:40:19.216Z,928
2018-01-18T06:41:25.405Z,927.9
2018-01-18T06:42:30.018Z,927.9
2018-01-18T06:43:34.090Z,927.8
2018-01-18T06:44:38.109Z,927.8
2018-01-18T06:45:42.287Z,927.8
2018-01-18T06:46:46.544Z,927.8
2018-01-18T06:47:51.654Z,927.8
2018-01-18T06:48:56.752Z,927.7
2018-01-18T06:50:00.077Z,927.8
2018-01-18T06:51:10.815Z,927.8
2018-01-18T06:52:16.125Z,927.8
2018-01-18T06:53:21.081Z,927.8
2018-01-18T06:54:25.950Z,927.8
2018-01-18T06:55:30.178Z,927.7
2018-01-18T06:56:35.323Z,923.2
2018-01-18T06:57:39.211Z,927.5
2018-01-18T06:58:43.986Z,927.4
2018-01-18T06:59:47.692Z,927.5
2018-01-18T07:00:51.225Z,927.5
2018-01-18T07:01:59.000Z,927.5
2018-01-18T07:03:03.937Z,927.6
2018-01-18T07:04:08.006Z,927.5
2018-01-18T07:05:14.318Z,927.5
2018-01-18T07:06:19.107Z,927.5
2018-01-18T07:07:25.856Z,927.5
2018-01-18T07:08:31.953Z,927.5
2018-01-18T07:09:38.585Z,927.3
2018-01-18T07:10:44.009Z,927.4
2018-01-18T07:11:50.369Z,927.2
2018-01-18T07:12:57.892Z,927.3
2018-01-18T07:14:03.198Z,927.2
2018-01-18T07:15:07.905Z,927.3
2018-01-18T07:16:12.765Z,927.2
2018-01-18T07:17:19.090Z,927.2
2018-01-18T07:18:23.017Z,927.2
2018-01-18T07:19:27.151Z,927.2
2018-01-18T07:20:33.408Z,927.1
2018-01-18T07:21:39.787Z,927.2
2018-01-18T07:22:45.344Z,927.1
2018-01-18T07:23:55.006Z,927.2
2018-01-18T07:25:00.468Z,927
2018-01-18T07:26:06.823Z,927
2018-01-18T07:27:13.505Z,927
2018-01-18T07:28:17.028Z,926.9
2018-01-18T07:29:22.161Z,927
2018-01-18T07:30:27.729Z,926.9
2018-01-18T07:31:31.301Z,926.9
2018-01-18T07:32:36.475Z,926.9
2018-01-18T07:33:40.381Z,926.9
2018-01-18T07:35:20.984Z,926.8
2018-01-18T07:36:24.974Z,926.8
2018-01-18T07:37:29.708Z,926.7
2018-01-18T07:38:33.903Z,926.7
2018-01-18T07:39:38.482Z,926.7
2018-01-18T07:40:42.957Z,926.8
2018-01-18T07:41:49.907Z,926.5
2018-01-18T07:42:53.346Z,926.6
2018-01-18T07:43:56.704Z,926.7
2018-01-18T07:45:01.486Z,926.5
2018-01-18T07:46:11.718Z,926.5
2018-01-18T07:47:15.643Z,926.4
2018-01-18T07:48:20.222Z,926.5
2018-01-18T07:49:24.889Z,926.5
2018-01-18T07:50:28.385Z,926.5
2018-01-18T07:51:32.785Z,926.4
2018-01-18T07:52:38.270Z,926.4
2018-01-18T07:53:44.291Z,926.4
2018-01-18T07:54:47.811Z,926.2
2018-01-18T07:55:51.688Z,926.3
2018-01-18T07:57:02.178Z,926.3
2018-01-18T07:58:06.047Z,926.3
2018-01-18T07:59:10.205Z,926.3
2018-01-18T08:00:14.932Z,926.3
2018-01-18T08:01:19.816Z,926.1
2018-01-18T08:02:25.031Z,926.2
2018-01-18T08:03:29.699Z,926.2
2018-01-18T08:04:34.857Z,926.1
2018-01-18T08:05:39.439Z,926.2
2018-01-18T08:06:44.783Z,926
2018-01-18T08:07:51.664Z,926.2
2018-01-18T08:08:56.181Z,926.2
2018-01-18T08:10:00.161Z,926
2018-01-18T08:11:05.256Z,926.1
2018-01-18T08:12:12.311Z,926.1
2018-01-18T08:13:16.452Z,925.9
2018-01-18T08:14:22.236Z,925.9
2018-01-18T08:15:27.330Z,925.9
2018-01-18T08:16:33.306Z,925.8
2018-01-18T08:17:38.408Z,925.8
2018-01-18T08:18:45.956Z,921.7
2018-01-18T08:19:49.439Z,925.9
2018-01-18T08:20:53.525Z,925.9
2018-01-18T08:21:56.960Z,925.8
2018-01-18T08:23:02.424Z,925.8
2018-01-18T08:24:08.279Z,925.7
2018-01-18T08:25:11.629Z,925.8
2018-01-18T08:26:16.389Z,925.7
2018-01-18T08:27:19.893Z,925.7
2018-01-18T08:28:23.823Z,925.8
2018-01-18T08:29:35.539Z,925.5
2018-01-18T08:30:39.075Z,925.7
2018-01-18T08:31:43.734Z,925.7
2018-01-18T08:32:47.616Z,925.8
2018-01-18T08:33:53.633Z,925.8
2018-01-18T08:34:59.319Z,925.8
2018-01-18T08:36:02.666Z,925.7
2018-01-18T08:37:07.100Z,925.9
2018-01-18T08:38:10.424Z,925.8
2018-01-18T08:39:15.757Z,925.6
2018-01-18T08:40:27.094Z,925.8
2018-01-18T08:41:31.052Z,922.9
2018-01-18T08:42:35.763Z,925.9
2018-01-18T08:43:39.818Z,925.7
2018-01-18T08:44:44.732Z,925.6
2018-01-18T08:45:48.842Z,925.8
2018-01-18T08:46:52.452Z,925.7
2018-01-18T08:47:57.714Z,925.6
2018-01-18T08:49:02.533Z,925.1
2018-01-18T08:50:07.111Z,925.8
2018-01-18T08:51:15.037Z,925.7
2018-01-18T08:52:18.548Z,925.7
2018-01-18T08:53:23.930Z,925.7
2018-01-18T08:54:27.286Z,925.8
2018-01-18T08:55:31.898Z,925.7
2018-01-18T08:56:35.387Z,925.5
2018-01-18T08:57:38.758Z,925.3
2018-01-18T08:58:42.229Z,925.5
2018-01-18T08:59:46.253Z,925.5
2018-01-18T09:00:50.399Z,925.6
2018-01-18T09:01:58.960Z,925.8
2018-01-18T09:03:03.638Z,925.6
2018-01-18T09:04:06.966Z,925.7
2018-01-18T09:05:10.479Z,925.7
2018-01-18T09:06:17.691Z,925.5
2018-01-18T09:07:22.232Z,925.5
2018-01-18T09:08:28.611Z,925.6
2018-01-18T09:09:33.262Z,925.6
2018-01-18T09:10:39.242Z,925.7
2018-01-18T09:11:42.700Z,925.5
2018-01-18T09:12:49.824Z,925.3
2018-01-18T09:13:53.228Z,925.5
2018-01-18T09:14:57.317Z,925.6
2018-01-18T09:16:00.721Z,925.5
2018-01-18T09:17:04.217Z,925.7
2018-01-18T09:18:07.765Z,925.5
2018-01-18T09:19:12.696Z,925.6
2018-01-18T09:20:16.945Z,925.6
2018-01-18T09:21:21.260Z,925.6
2018-01-18T09:22:27.094Z,925.4
2018-01-18T09:23:35.854Z,925.5
2018-01-18T09:24:40.201Z,925.4
2018-01-18T09:25:44.917Z,925.5
2018-01-18T09:26:48.394Z,925.5
2018-01-18T09:27:52.659Z,925.4
2018-01-18T09:28:57.162Z,925.5
2018-01-18T09:30:00.402Z,925.1
2018-01-18T09:31:04.006Z,925.4
2018-01-18T09:32:08.620Z,925.4
2018-01-18T09:33:12.951Z,925.5
2018-01-18T09:34:20.157Z,925.4
2018-01-18T09:35:23.211Z,925.2
2018-01-18T09:36:26.598Z,920.5
2018-01-18T09:37:30.620Z,925.3
2018-01-18T09:38:34.236Z,925.3
2018-01-18T09:39:37.831Z,925.5
2018-01-18T09:40:42.638Z,925.5
2018-01-18T09:41:46.165Z,918.7
2018-01-18T09:42:50.557Z,925.5
2018-01-18T09:43:53.852Z,925.4
2018-01-18T09:45:01.584Z,925.6
2018-01-18T09:46:05.046Z,925.3
2018-01-18T09:47:08.417Z,925.4
2018-01-18T09:48:11.727Z,925.5
2018-01-18T09:49:14.971Z,925.3
2018-01-18T09:50:18.431Z,925.5
2018-01-18T09:51:21.837Z,925.3
2018-01-18T09:52:25.411Z,925.4
2018-01-18T09:53:29.562Z,925.3
2018-01-18T09:54:32.997Z,925.5
2018-01-18T09:55:41.644Z,925.5
2018-01-18T09:56:45.157Z,925.3
2018-01-18T09:57:48.605Z,925.2
2018-01-18T09:58:52.022Z,925.3
2018-01-18T09:59:56.866Z,925.3
2018-01-18T10:01:00.965Z,925.1
2018-01-18T10:02:04.931Z,925.2
2018-01-18T10:03:08.366Z,925.2
2018-01-18T10:04:11.920Z,925.2
2018-01-18T10:05:15.476Z,925.3
2018-01-18T10:06:22.584Z,925.3
2018-01-18T10:07:26.096Z,925.2
2018-01-18T10:08:29.561Z,925.2
2018-01-18T10:09:33.002Z,924.9
2018-01-18T10:10:37.125Z,925.1
2018-01-18T10:11:41.320Z,925
2018-01-18T10:12:44.870Z,924.9
2018-01-18T10:13:48.380Z,924.9
2018-01-18T10:14:51.833Z,925.1
2018-01-18T10:15:55.252Z,925.1
2018-01-18T10:17:07.102Z,924.9
2018-01-18T10:18:10.608Z,925.1
2018-01-18T10:19:16.943Z,925.2
2018-01-18T10:20:20.166Z,925.2
2018-01-18T10:21:23.585Z,925
2018-01-18T10:22:27.613Z,925
2018-01-18T10:23:30.870Z,924.9
2018-01-18T10:24:35.322Z,924.9
2018-01-18T10:25:40.286Z,924.9
2018-01-18T10:26:44.356Z,925
2018-01-18T10:28:25.652Z,924.9
2018-01-18T10:29:29.571Z,924.7
2018-01-18T10:30:34.970Z,925.1
2018-01-18T10:31:38.775Z,925.1
2018-01-18T10:32:44.990Z,924.3
2018-01-18T10:33:49.866Z,924.8
2018-01-18T10:34:53.992Z,924.7
2018-01-18T10:35:58.436Z,924.7
2018-01-18T10:37:02.008Z,924.7
2018-01-18T10:38:05.988Z,924.8
2018-01-18T10:39:13.633Z,924.5
2018-01-18T10:40:19.801Z,924.5
2018-01-18T10:41:23.851Z,924.6
2018-01-18T10:42:32.862Z,924.6
2018-01-18T10:43:41.914Z,920.6
2018-01-18T10:44:45.976Z,924.2
2018-01-18T10:45:52.229Z,924.4
2018-01-18T10:46:56.518Z,924.6
2018-01-18T10:48:01.338Z,924.4
2018-01-18T10:49:05.938Z,924.4
2018-01-18T10:50:15.141Z,924.4
2018-01-18T10:51:21.876Z,924.4
2018-01-18T10:52:29.312Z,924.3
2018-01-18T10:53:34.117Z,924.5
2018-01-18T10:54:38.802Z,924.3
2018-01-18T10:55:42.512Z,924.3
2018-01-18T10:56:47.684Z,924.3
2018-01-18T10:57:51.836Z,924.3
2018-01-18T10:58:55.526Z,924.2
2018-01-18T10:59:59.214Z,924.3
2018-01-18T11:01:08.348Z,924.2
2018-01-18T11:02:12.417Z,924.2
2018-01-18T11:03:16.668Z,924
2018-01-18T11:04:20.921Z,924.2
2018-01-18T11:05:27.492Z,924.1
2018-01-18T11:06:30.946Z,923.9
2018-01-18T11:07:34.445Z,924.1
2018-01-18T11:08:39.247Z,924
2018-01-18T11:09:43.550Z,924
2018-01-18T11:10:47.818Z,924.1
2018-01-18T11:11:57.068Z,924
2018-01-18T11:13:01.101Z,923.9
2018-01-18T11:14:05.608Z,923.7
2018-01-18T11:15:09.276Z,923.9
2018-01-18T11:16:12.681Z,923.8
2018-01-18T11:17:16.821Z,923.9
2018-01-18T11:18:20.947Z,923.8
2018-01-18T11:19:24.188Z,924
2018-01-18T11:20:30.532Z,920.3
2018-01-18T11:21:34.129Z,923.9
2018-01-18T11:22:41.425Z,923.9
2018-01-18T11:23:44.691Z,923.7
2018-01-18T11:24:49.122Z,923.9
2018-01-18T11:25:56.113Z,924
2018-01-18T11:27:00.287Z,923.7
2018-01-18T11:28:07.103Z,924
2018-01-18T11:29:11.226Z,923.7
2018-01-18T11:30:14.579Z,923.9
2018-01-18T11:31:18.150Z,923.8
2018-01-18T11:32:22.704Z,924
2018-01-18T11:34:38.139Z,924
2018-01-18T11:35:43.785Z,924
2018-01-18T11:36:48.682Z,923.8
2018-01-18T11:37:53.825Z,923.5
2018-01-18T11:38:57.980Z,923.8
2018-01-18T11:40:01.770Z,923.8
2018-01-18T11:41:05.147Z,923.7
2018-01-18T11:42:08.698Z,923.7
2018-01-18T11:43:12.236Z,923.7
2018-01-18T11:44:16.377Z,923.6
2018-01-18T11:45:23.457Z,923.4
2018-01-18T11:46:27.637Z,923.6
2018-01-18T11:47:32.039Z,923.8
2018-01-18T11:48:36.135Z,923.7
2018-01-18T11:49:39.494Z,923.4
2018-01-18T11:50:42.960Z,923.6
2018-01-18T11:51:46.328Z,923.3
2018-01-18T11:52:49.944Z,923.3
2018-01-18T11:53:53.456Z,923.7
2018-01-18T11:54:56.855Z,923.5
2018-01-18T11:56:05.814Z,923.6
2018-01-18T11:57:09.230Z,923.5
2018-01-18T11:58:12.691Z,923.5
2018-01-18T11:59:16.132Z,923.5
2018-01-18T12:00:19.539Z,923.7
2018-01-18T12:01:24.868Z,923.1
2018-01-18T12:02:28.979Z,923.3
2018-01-18T12:03:34.405Z,923.4
2018-01-18T12:04:37.819Z,923.3
2018-01-18T12:05:41.266Z,923.1
2018-01-18T12:06:48.274Z,923.2
2018-01-18T12:07:52.488Z,923.3
2018-01-18T12:08:56.294Z,923.3
2018-01-18T12:10:00.300Z,923.4
2018-01-18T12:11:04.927Z,923.3
2018-01-18T12:12:08.393Z,923.3
2018-01-18T12:13:11.896Z,923.4
2018-01-18T12:14:16.158Z,923.4
2018-01-18T12:15:21.067Z,923.4
2018-01-18T12:16:27.881Z,923.4
2018-01-18T12:17:35.512Z,923.2
2018-01-18T12:18:41.135Z,923.4
2018-01-18T12:19:44.635Z,923.5
2018-01-18T12:20:50.100Z,923.4
2018-01-18T12:21:53.661Z,923.4
2018-01-18T12:22:58.138Z,923.3
2018-01-18T12:24:01.719Z,923.3
2018-01-18T12:25:06.613Z,923.4
2018-01-18T12:26:10.606Z,923.4
2018-01-18T12:27:14.136Z,923.5
2018-01-18T12:28:20.974Z,923.3
2018-01-18T12:29:24.345Z,923.4
2018-01-18T12:30:27.907Z,923.4
2018-01-18T12:31:32.390Z,923.4
2018-01-18T12:32:35.948Z,923.4
2018-01-18T12:33:39.452Z,923.6
2018-01-18T12:34:42.994Z,923.7
2018-01-18T12:35:46.372Z,923.5
2018-01-18T12:36:49.851Z,923.5
2018-01-18T12:37:53.354Z,923.5
2018-01-18T12:39:02.179Z,923.3
2018-01-18T12:40:06.231Z,923.3
2018-01-18T12:41:09.503Z,923.4
2018-01-18T12:42:13.039Z,923.6
2018-01-18T12:43:16.332Z,923.4
2018-01-18T12:44:20.513Z,923.3
2018-01-18T12:45:23.991Z,923.3
2018-01-18T12:46:27.732Z,923.3
2018-01-18T12:47:31.982Z,923.3
2018-01-18T12:48:35.373Z,923.1
2018-01-18T12:49:44.822Z,923.3
2018-01-18T12:50:48.803Z,923.4
2018-01-18T12:51:52.182Z,923.2
2018-01-18T12:52:56.278Z,923.3
2018-01-18T12:54:00.831Z,923.2
2018-01-18T12:55:04.288Z,923.2
2018-01-18T12:56:08.775Z,923.3
2018-01-18T12:57:13.044Z,923.1
2018-01-18T12:58:16.404Z,923
2018-01-18T12:59:21.156Z,923
2018-01-18T13:00:28.561Z,922.9
2018-01-18T13:01:32.588Z,923.1
2018-01-18T13:02:35.997Z,923.1
2018-01-18T13:03:39.426Z,923
2018-01-18T13:04:42.913Z,922.8
2018-01-18T13:05:47.147Z,922.7
2018-01-18T13:06:53.580Z,921.9
2018-01-18T13:07:59.332Z,922.9
2018-01-18T13:09:05.854Z,922.8
2018-01-18T13:10:12.784Z,922.9
2018-01-18T13:11:21.993Z,922.8
2018-01-18T13:12:25.514Z,922.8
2018-01-18T13:13:28.892Z,922.8
2018-01-18T13:14:33.040Z,922.7
2018-01-18T13:15:36.144Z,922.7
2018-01-18T13:16:40.076Z,922.6
2018-01-18T13:17:43.528Z,922.8
2018-01-18T13:18:47.583Z,922.9
2018-01-18T13:19:50.935Z,922.9
2018-01-18T13:20:54.380Z,922.6
2018-01-18T13:22:02.182Z,922.7
2018-01-18T13:23:05.733Z,922.9
2018-01-18T13:24:10.393Z,922.4
2018-01-18T13:25:13.900Z,922.7
2018-01-18T13:26:17.238Z,922.8
2018-01-18T13:27:20.678Z,922.8
2018-01-18T13:28:24.126Z,922.8
2018-01-18T13:29:27.718Z,922.9
2018-01-18T13:30:31.107Z,922.7
2018-01-18T13:31:34.535Z,922.3
2018-01-18T13:32:41.366Z,922.8
2018-01-18T13:33:44.944Z,922.9
2018-01-18T13:34:48.497Z,922.8
2018-01-18T13:35:51.907Z,923
2018-01-18T13:36:55.360Z,922.9
2018-01-18T13:37:58.822Z,922.9
2018-01-18T13:39:02.261Z,923
2018-01-18T13:40:05.741Z,923
2018-01-18T13:41:09.762Z,922.9
2018-01-18T13:42:13.747Z,922.9
2018-01-18T13:43:20.792Z,922.9
2018-01-18T13:44:25.680Z,922.7
2018-01-18T13:45:29.125Z,922.7
2018-01-18T13:46:32.624Z,922.5
2018-01-18T13:47:36.109Z,922.4
2018-01-18T13:48:40.479Z,922.4
2018-01-18T13:49:43.912Z,922.4
2018-01-18T13:50:48.045Z,922.6
2018-01-18T13:51:52.245Z,922.5
2018-01-18T13:52:55.812Z,922.4
2018-01-18T13:54:03.409Z,922.4
2018-01-18T13:55:06.981Z,922.7
2018-01-18T13:56:10.375Z,922.3
2018-01-18T13:57:14.002Z,922.7
2018-01-18T13:58:17.583Z,922.5
2018-01-18T13:59:20.897Z,922.6
2018-01-18T14:00:24.453Z,922.5
2018-01-18T14:01:29.424Z,922.4
2018-01-18T14:02:33.065Z,922.5
2018-01-18T14:03:36.539Z,922.4